Current Weather

Aurora Muni

Aurora, Illinois (KARR)

Report from: Sunday, July 14, 2024 4:52 AM CDT
Current time: Sunday, July 14, 2024 5:10 AM CDT

Nearby weather – Weather history – Daily summaries
Weather forecast

Temperature20.0°C (68.0°F)
Dew point18.3°C (64.9°F)
Winds 6 kts (3.1 m/s, 6.9 mph) South (180°)
Visibility10 mi. (16.1 km)
Clouds Sky clear
Altimeter29.99 in.Hg (1016 mB)
Relative humidity90 %
Density altitude813 ft. (248 m)
Sea-level pressure101.5 kPa (1015 mB, 29.97 in.Hg)
Remarks Fully automated report
Automated weather observing station with precipitation discriminator
Flight conditions Visual Meteorological Conditions
Raw dataKARR 140952Z AUTO 18006KT 10SM CLR 20/18 A2999 RMK AO2 SLP150 T02000183
An error has occurred. This application may no longer respond until reloaded. Reload 🗙